createdAt,value
2022-11-06T00:01:36.419Z,99.90
2022-11-06T00:04:03.842Z,99.90
2022-11-06T00:14:14.960Z,99.90
2022-11-06T00:16:43.392Z,99.90
2022-11-06T00:34:07.506Z,99.90
2022-11-06T00:36:35.453Z,99.90
2022-11-06T00:39:03.655Z,99.90
2022-11-06T00:41:31.031Z,99.90
2022-11-06T00:44:01.239Z,99.40
2022-11-06T00:46:29.080Z,99.90
2022-11-06T00:48:56.739Z,95.60
2022-11-06T00:51:29.560Z,99.90
2022-11-06T00:58:54.218Z,99.90
2022-11-06T01:01:24.371Z,99.60
2022-11-06T01:03:57.412Z,97.70
2022-11-06T01:06:27.030Z,99.70
2022-11-06T01:08:55.517Z,95.40
2022-11-06T01:11:31.519Z,96.20
2022-11-06T01:14:06.574Z,96.10
2022-11-06T01:16:33.924Z,99.90
2022-11-06T01:19:01.855Z,99.90
2022-11-06T01:21:32.078Z,97.60
2022-11-06T01:24:05.921Z,99.90
2022-11-06T01:26:38.556Z,99.90
2022-11-06T01:29:10.554Z,99.90
2022-11-06T01:31:38.376Z,99.90
2022-11-06T01:34:05.892Z,99.90
2022-11-06T01:36:33.701Z,99.90
2022-11-06T01:39:04.044Z,98.80
2022-11-06T01:41:39.131Z,99.90
2022-11-06T01:44:35.387Z,99.90
2022-11-06T01:47:27.686Z,99.90
2022-11-06T01:50:00.090Z,97.50
2022-11-06T01:55:06.784Z,99.90
2022-11-06T01:57:34.127Z,97.30
2022-11-06T02:00:01.728Z,99.90
2022-11-06T02:07:24.992Z,99.90
2022-11-06T02:09:52.496Z,99.90
2022-11-06T02:15:20.371Z,99.90
2022-11-06T02:41:08.847Z,99.90
2022-11-06T02:43:44.259Z,99.90
2022-11-06T02:46:24.521Z,99.90
2022-11-06T02:48:57.389Z,99.90
2022-11-06T03:03:57.008Z,99.90
2022-11-06T03:11:35.868Z,99.90
2022-11-06T03:14:26.845Z,99.90
2022-11-06T03:17:00.788Z,99.90
2022-11-06T03:19:39.212Z,99.90
2022-11-06T03:22:13.021Z,99.90
2022-11-06T03:24:48.923Z,99.90
2022-11-06T03:27:35.748Z,99.90
2022-11-06T03:30:13.779Z,99.90
2022-11-06T03:32:57.138Z,99.90
2022-11-06T03:35:35.073Z,99.90
2022-11-06T03:38:16.546Z,99.90
2022-11-06T03:40:49.689Z,99.90
2022-11-06T03:43:22.036Z,99.90
2022-11-06T03:45:53.105Z,99.90
2022-11-06T03:48:39.174Z,99.90
2022-11-06T03:51:34.686Z,99.90
2022-11-06T03:54:22.721Z,99.90
2022-11-06T03:57:10.091Z,99.90
2022-11-06T03:59:43.055Z,99.90
2022-11-06T04:02:13.252Z,99.90
2022-11-06T04:12:57.341Z,99.90
2022-11-06T04:33:53.123Z,99.90
2022-11-06T04:39:16.239Z,99.90
2022-11-06T04:57:04.398Z,99.90
2022-11-06T04:59:35.628Z,99.90
2022-11-06T05:02:03.988Z,99.90
2022-11-06T05:04:32.612Z,99.90
2022-11-06T05:07:00.303Z,99.90
2022-11-06T05:09:27.821Z,99.90
2022-11-06T05:11:55.145Z,99.90
2022-11-06T05:14:22.535Z,99.90
2022-11-06T05:16:49.984Z,99.90
2022-11-06T05:19:17.303Z,99.90
2022-11-06T05:22:03.204Z,99.90
2022-11-06T05:24:30.542Z,99.90
2022-11-06T05:26:59.567Z,99.90
2022-11-06T05:29:27.760Z,99.90
2022-11-06T05:31:55.176Z,99.90
2022-11-06T05:34:22.631Z,99.90
2022-11-06T05:36:49.961Z,99.90
2022-11-06T05:39:17.352Z,99.90
2022-11-06T05:41:44.712Z,99.90
2022-11-06T05:44:12.464Z,99.90
2022-11-06T05:46:48.808Z,99.90
2022-11-06T05:49:18.516Z,99.90
2022-11-06T05:51:46.635Z,99.90
2022-11-06T05:54:14.886Z,99.90
2022-11-06T05:56:42.192Z,99.90
2022-11-06T05:59:09.634Z,99.90
2022-11-06T06:06:39.208Z,99.90
2022-11-06T06:09:06.847Z,99.90
2022-11-06T06:11:34.199Z,99.90
2022-11-06T06:14:01.863Z,99.90
2022-11-06T06:16:29.460Z,99.90
2022-11-06T06:18:56.784Z,99.90
2022-11-06T06:21:24.144Z,99.90
2022-11-06T06:23:51.781Z,99.90
2022-11-06T06:26:19.097Z,99.90
2022-11-06T06:28:49.329Z,99.90
2022-11-06T06:31:16.649Z,99.90
2022-11-06T06:33:43.993Z,99.90
2022-11-06T06:36:11.416Z,99.90
2022-11-06T06:38:39.127Z,99.90
2022-11-06T06:41:08.475Z,99.90
2022-11-06T06:43:36.192Z,99.90
2022-11-06T06:46:06.400Z,99.90
2022-11-06T06:48:34.455Z,99.90
2022-11-06T06:51:03.100Z,99.90
2022-11-06T06:53:31.200Z,99.90
2022-11-06T06:56:00.500Z,99.90
2022-11-06T06:58:29.222Z,99.90
2022-11-06T07:01:02.998Z,98.90
2022-11-06T07:03:31.163Z,96.60
2022-11-06T07:05:59.103Z,94.70
2022-11-06T07:08:27.392Z,93.20
2022-11-06T07:11:02.537Z,92.40
2022-11-06T07:13:35.369Z,97.50
2022-11-06T07:16:05.144Z,92.00
2022-11-06T07:18:33.097Z,91.10
2022-11-06T07:21:00.728Z,90.20
2022-11-06T07:23:28.149Z,92.20
2022-11-06T07:25:55.510Z,87.90
2022-11-06T07:28:22.816Z,83.40
2022-11-06T07:30:50.115Z,83.80
2022-11-06T07:33:17.610Z,79.50
2022-11-06T07:35:44.952Z,78.80
2022-11-06T07:38:12.533Z,76.80
2022-11-06T07:40:40.146Z,77.00
2022-11-06T07:43:09.584Z,78.10
2022-11-06T07:45:38.059Z,69.80
2022-11-06T07:48:06.203Z,82.90
2022-11-06T07:50:33.668Z,71.00
2022-11-06T07:53:04.311Z,90.10
2022-11-06T07:55:31.863Z,75.00
2022-11-06T07:57:59.713Z,77.30
2022-11-06T08:00:27.094Z,80.20
2022-11-06T08:02:54.628Z,81.90
2022-11-06T08:05:22.005Z,80.60
2022-11-06T08:07:49.272Z,92.60
2022-11-06T08:10:16.795Z,80.30
2022-11-06T08:12:44.185Z,79.90
2022-11-06T08:15:11.626Z,79.40
2022-11-06T08:17:38.969Z,79.80
2022-11-06T08:20:07.190Z,79.60
2022-11-06T08:22:34.579Z,80.50
2022-11-06T08:25:01.907Z,78.90
2022-11-06T08:27:29.289Z,77.90
2022-11-06T08:29:56.581Z,74.70
2022-11-06T08:32:24.015Z,72.30
2022-11-06T08:34:51.322Z,74.50
2022-11-06T08:37:18.716Z,79.80
2022-11-06T08:39:46.072Z,72.30
2022-11-06T08:42:14.066Z,65.60
2022-11-06T08:44:42.482Z,74.00
2022-11-06T08:47:09.833Z,58.70
2022-11-06T08:49:37.138Z,55.60
2022-11-06T08:52:04.486Z,54.80
2022-11-06T08:54:31.824Z,55.40
2022-11-06T08:57:00.195Z,59.70
2022-11-06T08:59:27.751Z,64.40
2022-11-06T09:01:57.360Z,67.90
2022-11-06T09:04:24.867Z,70.30
2022-11-06T09:06:52.444Z,67.00
2022-11-06T09:09:19.944Z,66.90
2022-11-06T09:11:47.287Z,65.70
2022-11-06T09:14:14.632Z,64.80
2022-11-06T09:16:41.892Z,63.20
2022-11-06T09:19:09.155Z,61.00
2022-11-06T09:21:36.489Z,59.30
2022-11-06T09:24:04.142Z,60.10
2022-11-06T09:26:31.510Z,57.60
2022-11-06T09:28:58.851Z,56.20
2022-11-06T09:31:26.424Z,53.00
2022-11-06T09:33:54.229Z,52.70
2022-11-06T09:36:21.650Z,53.90
2022-11-06T09:38:49.224Z,52.30
2022-11-06T09:41:25.443Z,52.50
2022-11-06T09:44:36.593Z,52.40
2022-11-06T09:47:09.847Z,48.60
2022-11-06T09:49:49.556Z,49.70
2022-11-06T09:52:33.266Z,50.00
2022-11-06T09:55:26.504Z,48.30
2022-11-06T09:58:05.109Z,48.80
2022-11-06T10:00:32.888Z,49.50
2022-11-06T10:03:29.424Z,49.10
2022-11-06T10:05:56.775Z,48.50
2022-11-06T10:08:28.143Z,48.20
2022-11-06T10:11:19.286Z,49.80
2022-11-06T10:14:01.206Z,46.90
2022-11-06T10:16:54.101Z,47.50
2022-11-06T10:19:41.401Z,46.70
2022-11-06T10:22:18.964Z,47.40
2022-11-06T10:25:04.440Z,48.50
2022-11-06T10:27:45.102Z,49.20
2022-11-06T10:30:15.653Z,49.50
2022-11-06T10:33:05.239Z,51.10
2022-11-06T10:35:42.221Z,52.00
2022-11-06T10:38:27.487Z,52.70
2022-11-06T10:40:55.957Z,54.40
2022-11-06T10:43:32.219Z,51.90
2022-11-06T10:46:13.262Z,53.20
2022-11-06T10:48:46.673Z,52.40
2022-11-06T10:51:25.965Z,52.60
2022-11-06T10:54:07.216Z,53.00
2022-11-06T10:56:55.599Z,52.90
2022-11-06T10:59:23.040Z,53.20
2022-11-06T11:01:50.478Z,54.30
2022-11-06T11:04:17.948Z,54.10
2022-11-06T11:06:45.406Z,53.20
2022-11-06T11:09:31.943Z,54.10
2022-11-06T11:12:00.269Z,54.20
2022-11-06T11:14:30.705Z,53.80
2022-11-06T11:17:02.429Z,54.40
2022-11-06T11:19:38.221Z,54.50
2022-11-06T11:22:17.463Z,55.20
2022-11-06T11:25:04.741Z,54.00
2022-11-06T11:28:03.656Z,54.10
2022-11-06T11:30:32.304Z,54.80
2022-11-06T11:32:59.791Z,56.10
2022-11-06T11:35:30.072Z,54.60
2022-11-06T11:38:15.521Z,57.70
2022-11-06T11:40:43.459Z,56.60
2022-11-06T11:43:19.832Z,53.40
2022-11-06T11:46:18.280Z,54.50
2022-11-06T11:48:55.697Z,54.90
2022-11-06T11:51:37.840Z,55.10
2022-11-06T11:54:13.973Z,55.40
2022-11-06T11:57:08.780Z,54.60
2022-11-06T11:59:46.297Z,54.00
2022-11-06T12:02:25.247Z,56.80
2022-11-06T12:04:58.661Z,59.10
2022-11-06T12:07:35.865Z,55.10
2022-11-06T12:10:33.681Z,75.10
2022-11-06T12:13:04.983Z,56.90
2022-11-06T12:15:55.008Z,53.80
2022-11-06T12:18:31.493Z,54.50
2022-11-06T12:21:26.493Z,72.40
2022-11-06T12:24:04.341Z,54.00
2022-11-06T12:26:43.633Z,56.50
2022-11-06T12:29:14.446Z,52.70
2022-11-06T12:32:18.882Z,53.80
2022-11-06T12:34:58.580Z,54.90
2022-11-06T12:37:40.950Z,58.30
2022-11-06T12:40:25.019Z,54.60
2022-11-06T12:43:11.386Z,55.40
2022-11-06T12:45:50.469Z,56.40
2022-11-06T12:48:41.875Z,53.70
2022-11-06T12:51:28.047Z,60.70
2022-11-06T12:54:12.554Z,56.50
2022-11-06T12:57:04.292Z,55.50
2022-11-06T12:59:44.971Z,55.00
2022-11-06T13:02:25.194Z,55.90
2022-11-06T13:05:01.846Z,53.70
2022-11-06T13:07:43.779Z,53.40
2022-11-06T13:10:19.961Z,55.90
2022-11-06T13:13:02.435Z,55.50
2022-11-06T13:15:39.253Z,55.50
2022-11-06T13:18:15.104Z,52.20
2022-11-06T13:20:57.482Z,54.30
2022-11-06T13:23:40.283Z,51.40
2022-11-06T13:26:24.051Z,54.10
2022-11-06T13:29:02.240Z,51.20
2022-11-06T13:32:00.667Z,54.00
2022-11-06T13:34:32.578Z,52.20
2022-11-06T13:37:01.293Z,53.20
2022-11-06T13:39:41.288Z,52.70
2022-11-06T13:42:29.290Z,53.40
2022-11-06T13:44:57.760Z,53.70
2022-11-06T13:47:41.433Z,55.90
2022-11-06T13:50:22.163Z,55.00
2022-11-06T13:53:00.412Z,61.80
2022-11-06T13:55:36.949Z,57.20
2022-11-06T13:58:16.555Z,58.50
2022-11-06T14:01:05.341Z,61.00
2022-11-06T14:03:48.184Z,61.80
2022-11-06T14:06:27.733Z,61.60
2022-11-06T14:09:06.529Z,60.90
2022-11-06T14:11:38.010Z,59.70
2022-11-06T14:14:23.142Z,61.60
2022-11-06T14:17:13.046Z,63.10
2022-11-06T14:19:51.311Z,63.10
2022-11-06T14:22:29.254Z,64.20
2022-11-06T14:25:01.586Z,66.10
2022-11-06T14:27:29.510Z,66.10
2022-11-06T14:30:01.110Z,67.70
2022-11-06T14:32:31.152Z,67.10
2022-11-06T14:35:30.988Z,68.80
2022-11-06T14:38:10.688Z,70.00
2022-11-06T14:40:39.369Z,70.40
2022-11-06T14:43:27.823Z,70.90
2022-11-06T14:46:05.132Z,71.90
2022-11-06T14:48:47.142Z,73.30
2022-11-06T14:51:14.909Z,73.70
2022-11-06T14:53:55.456Z,74.80
2022-11-06T14:56:26.978Z,76.30
2022-11-06T14:59:08.890Z,77.10
2022-11-06T15:01:37.710Z,78.30
2022-11-06T15:04:15.018Z,79.10
2022-11-06T15:06:48.242Z,80.10
2022-11-06T15:09:24.567Z,81.30
2022-11-06T15:11:55.048Z,82.20
2022-11-06T15:14:22.254Z,82.10
2022-11-06T15:16:54.557Z,82.90
2022-11-06T15:19:33.521Z,83.10
2022-11-06T15:22:26.311Z,84.60
2022-11-06T15:25:22.259Z,84.70
2022-11-06T15:27:59.510Z,85.30
2022-11-06T15:30:29.377Z,86.00
2022-11-06T15:32:57.494Z,86.10
2022-11-06T15:35:28.666Z,85.90
2022-11-06T15:38:04.700Z,86.10
2022-11-06T15:40:38.355Z,88.10
2022-11-06T15:43:17.519Z,88.60
2022-11-06T15:45:44.896Z,90.00
2022-11-06T15:48:22.730Z,90.50
2022-11-06T15:50:50.116Z,90.70
2022-11-06T15:53:22.697Z,90.60
2022-11-06T15:56:03.393Z,90.60
2022-11-06T15:58:36.459Z,90.90
2022-11-06T16:01:06.215Z,91.00
2022-11-06T16:03:51.925Z,91.10
2022-11-06T16:06:20.211Z,91.70
2022-11-06T16:08:48.960Z,92.30
2022-11-06T16:11:19.465Z,92.60
2022-11-06T16:13:47.807Z,93.00
2022-11-06T16:16:48.787Z,92.60
2022-11-06T16:19:32.533Z,92.70
2022-11-06T16:22:07.891Z,93.20
2022-11-06T16:24:43.636Z,93.10
2022-11-06T16:27:11.668Z,93.00
2022-11-06T16:29:39.860Z,93.20
2022-11-06T16:32:14.042Z,93.30
2022-11-06T16:34:44.431Z,93.40
2022-11-06T16:37:17.712Z,93.60
2022-11-06T16:39:51.011Z,94.00
2022-11-06T16:42:33.021Z,94.10
2022-11-06T16:45:00.304Z,94.60
2022-11-06T16:47:27.913Z,94.80
2022-11-06T16:49:57.112Z,98.00
2022-11-06T16:52:38.883Z,96.90
2022-11-06T16:55:28.387Z,99.90
2022-11-06T16:57:58.726Z,99.90
2022-11-06T17:00:29.280Z,99.90
2022-11-06T17:03:19.968Z,98.40
2022-11-06T17:05:59.523Z,98.30
2022-11-06T17:08:38.629Z,99.90
2022-11-06T17:11:21.632Z,99.20
2022-11-06T17:13:50.459Z,99.90
2022-11-06T17:16:21.622Z,99.90
2022-11-06T17:18:49.524Z,99.90
2022-11-06T17:21:25.116Z,99.90
2022-11-06T17:23:53.040Z,99.90
2022-11-06T17:26:28.265Z,99.90
2022-11-06T17:28:57.205Z,99.90
2022-11-06T17:31:25.524Z,99.90
2022-11-06T17:33:53.508Z,99.90
2022-11-06T17:36:21.039Z,99.90
2022-11-06T17:38:49.456Z,99.90
2022-11-06T17:41:32.305Z,99.90
2022-11-06T17:44:10.592Z,99.90
2022-11-06T17:46:43.540Z,99.90
2022-11-06T17:49:17.077Z,99.90
2022-11-06T17:51:52.460Z,99.90
2022-11-06T17:54:22.024Z,99.90
2022-11-06T17:56:51.303Z,99.90
2022-11-06T17:59:18.763Z,99.90
2022-11-06T18:01:47.820Z,99.90
2022-11-06T18:04:15.379Z,99.90
2022-11-06T18:06:47.216Z,99.90
2022-11-06T18:09:14.858Z,99.90
2022-11-06T18:11:43.255Z,99.90
2022-11-06T18:14:12.805Z,99.90
2022-11-06T18:16:43.897Z,99.90
2022-11-06T18:19:14.995Z,99.90
2022-11-06T18:21:42.229Z,99.90
2022-11-06T18:24:09.506Z,99.90
2022-11-06T18:26:40.140Z,99.90
2022-11-06T18:29:08.295Z,99.90
2022-11-06T18:31:35.750Z,99.90
2022-11-06T18:34:04.651Z,99.90
2022-11-06T18:36:33.377Z,99.90
2022-11-06T18:39:01.035Z,99.90
2022-11-06T18:41:29.840Z,99.90
2022-11-06T18:43:58.524Z,99.90
2022-11-06T18:46:27.103Z,99.90
2022-11-06T18:48:55.484Z,99.90
2022-11-06T18:51:34.607Z,99.90
2022-11-06T18:54:06.133Z,99.90
2022-11-06T18:56:36.227Z,99.90
2022-11-06T18:59:05.502Z,99.90
2022-11-06T19:01:34.711Z,99.90
2022-11-06T19:04:03.813Z,99.90
2022-11-06T19:06:31.792Z,99.90
2022-11-06T19:08:59.413Z,99.90
2022-11-06T19:11:26.754Z,99.90
2022-11-06T19:13:54.117Z,99.90
2022-11-06T19:16:21.673Z,99.90
2022-11-06T19:21:32.084Z,99.90
2022-11-06T19:24:03.866Z,99.90
2022-11-06T19:26:32.776Z,99.90
2022-11-06T19:29:00.909Z,99.90
2022-11-06T19:31:29.678Z,99.90
2022-11-06T19:33:58.987Z,99.90
2022-11-06T19:36:26.604Z,99.90
2022-11-06T19:38:54.372Z,99.90
2022-11-06T19:41:21.747Z,99.90
2022-11-06T19:43:49.112Z,99.90
2022-11-06T19:46:24.171Z,99.90
2022-11-06T19:48:54.517Z,99.90
2022-11-06T19:51:21.993Z,99.90
2022-11-06T19:53:53.130Z,99.90
2022-11-06T19:56:21.456Z,99.90
2022-11-06T19:58:50.379Z,99.90
2022-11-06T20:01:18.598Z,99.90
2022-11-06T20:03:46.342Z,99.90
2022-11-06T20:06:14.834Z,99.90
2022-11-06T20:08:42.803Z,99.90
2022-11-06T20:11:15.367Z,99.90
2022-11-06T20:13:44.589Z,99.90
2022-11-06T20:16:18.093Z,99.90
2022-11-06T20:18:51.267Z,99.90
2022-11-06T20:21:18.972Z,99.90
2022-11-06T20:23:46.359Z,99.90
2022-11-06T20:26:14.239Z,99.90
2022-11-06T20:28:42.933Z,99.90
2022-11-06T20:31:11.838Z,99.90
2022-11-06T20:33:40.223Z,99.90
2022-11-06T20:36:23.226Z,99.90
2022-11-06T20:38:55.415Z,99.90
2022-11-06T20:41:24.000Z,99.90
2022-11-06T20:43:52.258Z,99.90
2022-11-06T20:46:22.573Z,99.90
2022-11-06T20:48:51.152Z,99.90
2022-11-06T20:51:22.103Z,99.90
2022-11-06T20:53:49.656Z,99.90
2022-11-06T20:56:21.441Z,99.90
2022-11-06T20:58:48.843Z,99.90
2022-11-06T21:01:19.950Z,99.90
2022-11-06T21:03:49.850Z,99.90
2022-11-06T21:06:19.836Z,99.90
2022-11-06T21:08:48.066Z,99.90
2022-11-06T21:11:21.952Z,99.90
2022-11-06T21:13:51.754Z,99.90
2022-11-06T21:16:31.381Z,99.90
2022-11-06T21:18:59.661Z,99.90
2022-11-06T21:21:29.171Z,99.90
2022-11-06T21:23:56.568Z,99.90
2022-11-06T21:26:26.309Z,99.90
2022-11-06T21:28:53.696Z,99.90
2022-11-06T21:31:23.658Z,99.90
2022-11-06T21:33:52.376Z,99.90
2022-11-06T21:36:22.851Z,99.90
2022-11-06T21:38:50.134Z,99.90
2022-11-06T21:41:23.298Z,99.90
2022-11-06T21:43:50.670Z,99.90
2022-11-06T21:46:18.653Z,99.90
2022-11-06T21:48:47.726Z,99.90
2022-11-06T21:51:22.389Z,99.90
2022-11-06T21:54:08.739Z,99.90
2022-11-06T21:56:37.297Z,99.90
2022-11-06T21:59:07.042Z,99.90
2022-11-06T22:01:34.939Z,99.90
2022-11-06T22:06:30.696Z,99.90
2022-11-06T22:09:01.030Z,99.90
2022-11-06T22:11:34.270Z,99.90
2022-11-06T22:16:35.208Z,99.90
2022-11-06T22:19:03.316Z,99.90
2022-11-06T22:21:30.949Z,99.90
2022-11-06T22:23:58.331Z,99.90
2022-11-06T22:26:29.302Z,99.90
2022-11-06T22:28:58.969Z,99.90
2022-11-06T22:31:26.885Z,99.90
2022-11-06T22:33:54.491Z,99.90
2022-11-06T22:36:23.000Z,99.90
2022-11-06T22:41:21.142Z,99.90
2022-11-06T22:43:48.608Z,99.90
2022-11-06T22:48:45.464Z,99.90
2022-11-06T22:51:15.722Z,99.90
2022-11-06T22:53:43.398Z,99.90
2022-11-06T22:56:12.691Z,99.90
2022-11-06T22:58:42.364Z,99.90
2022-11-06T23:01:11.092Z,99.90
2022-11-06T23:06:08.915Z,99.90
2022-11-06T23:11:15.608Z,99.90
2022-11-06T23:13:45.661Z,99.90
